sensor_id;sensor_type;location;lat;lon;timestamp;P1;durP1;ratioP1;P2;durP2;ratioP2
5042;SDS011;2540;50.928;6.856;2023-02-23T00:01:53;63.57;;;31.73;;
5042;SDS011;2540;50.928;6.856;2023-02-23T00:04:19;62.20;;;32.37;;
5042;SDS011;2540;50.928;6.856;2023-02-23T00:06:44;53.23;;;29.80;;
5042;SDS011;2540;50.928;6.856;2023-02-23T00:09:09;58.80;;;32.20;;
5042;SDS011;2540;50.928;6.856;2023-02-23T00:11:46;65.17;;;31.33;;
5042;SDS011;2540;50.928;6.856;2023-02-23T00:14:11;66.77;;;33.93;;
5042;SDS011;2540;50.928;6.856;2023-02-23T00:16:37;55.23;;;31.23;;
5042;SDS011;2540;50.928;6.856;2023-02-23T00:19:02;60.93;;;34.37;;
5042;SDS011;2540;50.928;6.856;2023-02-23T00:21:31;59.80;;;32.47;;
5042;SDS011;2540;50.928;6.856;2023-02-23T00:24:08;62.87;;;31.97;;
5042;SDS011;2540;50.928;6.856;2023-02-23T00:26:35;60.10;;;32.13;;
5042;SDS011;2540;50.928;6.856;2023-02-23T00:29:02;58.50;;;34.37;;
5042;SDS011;2540;50.928;6.856;2023-02-23T00:31:28;64.67;;;33.37;;
5042;SDS011;2540;50.928;6.856;2023-02-23T00:33:54;61.03;;;32.63;;
5042;SDS011;2540;50.928;6.856;2023-02-23T00:36:20;57.90;;;31.50;;
5042;SDS011;2540;50.928;6.856;2023-02-23T00:38:46;63.90;;;33.13;;
5042;SDS011;2540;50.928;6.856;2023-02-23T00:41:13;57.50;;;30.77;;
5042;SDS011;2540;50.928;6.856;2023-02-23T00:43:41;57.20;;;30.10;;
5042;SDS011;2540;50.928;6.856;2023-02-23T00:46:12;62.23;;;31.10;;
5042;SDS011;2540;50.928;6.856;2023-02-23T00:48:37;57.50;;;30.37;;
5042;SDS011;2540;50.928;6.856;2023-02-23T00:51:03;59.03;;;31.33;;
5042;SDS011;2540;50.928;6.856;2023-02-23T00:53:29;57.77;;;30.83;;
5042;SDS011;2540;50.928;6.856;2023-02-23T00:55:54;62.93;;;32.83;;
5042;SDS011;2540;50.928;6.856;2023-02-23T00:58:20;59.37;;;32.13;;
5042;SDS011;2540;50.928;6.856;2023-02-23T01:00:45;57.27;;;31.13;;
5042;SDS011;2540;50.928;6.856;2023-02-23T01:03:11;60.07;;;32.07;;
5042;SDS011;2540;50.928;6.856;2023-02-23T01:05:36;58.30;;;31.47;;
5042;SDS011;2540;50.928;6.856;2023-02-23T01:08:01;64.57;;;32.70;;
5042;SDS011;2540;50.928;6.856;2023-02-23T01:10:28;61.93;;;31.97;;
5042;SDS011;2540;50.928;6.856;2023-02-23T01:12:53;57.60;;;31.37;;
5042;SDS011;2540;50.928;6.856;2023-02-23T01:15:19;57.27;;;32.47;;
5042;SDS011;2540;50.928;6.856;2023-02-23T01:17:44;66.23;;;33.03;;
5042;SDS011;2540;50.928;6.856;2023-02-23T01:20:11;63.30;;;31.57;;
5042;SDS011;2540;50.928;6.856;2023-02-23T01:22:41;67.63;;;34.43;;
5042;SDS011;2540;50.928;6.856;2023-02-23T01:25:07;70.13;;;34.50;;
5042;SDS011;2540;50.928;6.856;2023-02-23T01:27:32;61.37;;;33.53;;
5042;SDS011;2540;50.928;6.856;2023-02-23T01:29:59;63.73;;;33.10;;
5042;SDS011;2540;50.928;6.856;2023-02-23T01:32:24;64.50;;;33.37;;
5042;SDS011;2540;50.928;6.856;2023-02-23T01:34:49;64.37;;;32.57;;
5042;SDS011;2540;50.928;6.856;2023-02-23T01:37:15;62.63;;;32.30;;
5042;SDS011;2540;50.928;6.856;2023-02-23T01:39:40;62.70;;;34.23;;
5042;SDS011;2540;50.928;6.856;2023-02-23T01:42:08;74.80;;;33.53;;
5042;SDS011;2540;50.928;6.856;2023-02-23T01:47:03;74.17;;;36.73;;
5042;SDS011;2540;50.928;6.856;2023-02-23T01:49:29;70.63;;;36.67;;
5042;SDS011;2540;50.928;6.856;2023-02-23T01:51:57;73.50;;;37.40;;
5042;SDS011;2540;50.928;6.856;2023-02-23T01:54:24;92.60;;;38.77;;
5042;SDS011;2540;50.928;6.856;2023-02-23T01:56:51;76.73;;;37.17;;
5042;SDS011;2540;50.928;6.856;2023-02-23T01:59:22;85.00;;;38.37;;
5042;SDS011;2540;50.928;6.856;2023-02-23T02:01:52;79.10;;;36.90;;
5042;SDS011;2540;50.928;6.856;2023-02-23T02:04:18;86.13;;;40.10;;
5042;SDS011;2540;50.928;6.856;2023-02-23T02:06:44;76.97;;;37.77;;
5042;SDS011;2540;50.928;6.856;2023-02-23T02:09:13;88.50;;;37.60;;
5042;SDS011;2540;50.928;6.856;2023-02-23T02:11:41;82.00;;;39.43;;
5042;SDS011;2540;50.928;6.856;2023-02-23T02:14:16;86.37;;;39.30;;
5042;SDS011;2540;50.928;6.856;2023-02-23T02:42:58;77.13;;;40.90;;
5042;SDS011;2540;50.928;6.856;2023-02-23T02:45:31;85.07;;;38.80;;
5042;SDS011;2540;50.928;6.856;2023-02-23T02:55:49;86.70;;;38.77;;
5042;SDS011;2540;50.928;6.856;2023-02-23T02:58:15;89.87;;;43.27;;
5042;SDS011;2540;50.928;6.856;2023-02-23T03:00:45;92.10;;;43.20;;
5042;SDS011;2540;50.928;6.856;2023-02-23T03:03:33;92.83;;;42.93;;
5042;SDS011;2540;50.928;6.856;2023-02-23T03:06:19;97.40;;;42.43;;
5042;SDS011;2540;50.928;6.856;2023-02-23T03:12:42;94.67;;;44.27;;
5042;SDS011;2540;50.928;6.856;2023-02-23T03:18:05;94.87;;;44.50;;
5042;SDS011;2540;50.928;6.856;2023-02-23T03:20:53;91.83;;;43.37;;
5042;SDS011;2540;50.928;6.856;2023-02-23T03:32:15;105.13;;;44.27;;
5042;SDS011;2540;50.928;6.856;2023-02-23T03:35:08;98.97;;;43.83;;
5042;SDS011;2540;50.928;6.856;2023-02-23T03:40:46;94.13;;;44.77;;
5042;SDS011;2540;50.928;6.856;2023-02-23T03:43:33;99.77;;;44.17;;
5042;SDS011;2540;50.928;6.856;2023-02-23T03:46:17;98.93;;;43.60;;
5042;SDS011;2540;50.928;6.856;2023-02-23T03:49:02;100.10;;;43.30;;
5042;SDS011;2540;50.928;6.856;2023-02-23T03:51:48;108.20;;;45.10;;
5042;SDS011;2540;50.928;6.856;2023-02-23T03:54:34;114.27;;;46.67;;
5042;SDS011;2540;50.928;6.856;2023-02-23T03:57:20;105.40;;;47.10;;
5042;SDS011;2540;50.928;6.856;2023-02-23T04:00:07;101.70;;;44.83;;
5042;SDS011;2540;50.928;6.856;2023-02-23T04:02:51;95.67;;;45.10;;
5042;SDS011;2540;50.928;6.856;2023-02-23T04:05:36;109.70;;;46.00;;
5042;SDS011;2540;50.928;6.856;2023-02-23T04:08:21;102.93;;;45.67;;
5042;SDS011;2540;50.928;6.856;2023-02-23T04:11:15;98.23;;;46.70;;
5042;SDS011;2540;50.928;6.856;2023-02-23T04:14:00;99.87;;;46.37;;
5042;SDS011;2540;50.928;6.856;2023-02-23T04:16:28;98.63;;;45.27;;
5042;SDS011;2540;50.928;6.856;2023-02-23T04:18:54;101.67;;;45.53;;
5042;SDS011;2540;50.928;6.856;2023-02-23T04:21:19;105.50;;;47.37;;
5042;SDS011;2540;50.928;6.856;2023-02-23T04:23:44;109.80;;;47.30;;
5042;SDS011;2540;50.928;6.856;2023-02-23T04:26:09;101.57;;;45.93;;
5042;SDS011;2540;50.928;6.856;2023-02-23T04:28:35;100.03;;;44.50;;
5042;SDS011;2540;50.928;6.856;2023-02-23T04:31:00;100.07;;;44.97;;
5042;SDS011;2540;50.928;6.856;2023-02-23T04:33:26;100.53;;;45.70;;
5042;SDS011;2540;50.928;6.856;2023-02-23T04:35:52;93.17;;;44.53;;
5042;SDS011;2540;50.928;6.856;2023-02-23T04:38:17;89.37;;;44.07;;
5042;SDS011;2540;50.928;6.856;2023-02-23T04:40:43;105.13;;;44.77;;
5042;SDS011;2540;50.928;6.856;2023-02-23T04:43:10;92.67;;;45.77;;
5042;SDS011;2540;50.928;6.856;2023-02-23T04:45:35;97.53;;;44.30;;
5042;SDS011;2540;50.928;6.856;2023-02-23T04:48:01;98.73;;;44.87;;
5042;SDS011;2540;50.928;6.856;2023-02-23T04:50:26;106.07;;;46.40;;
5042;SDS011;2540;50.928;6.856;2023-02-23T04:52:51;110.60;;;47.77;;
5042;SDS011;2540;50.928;6.856;2023-02-23T04:55:18;104.40;;;45.90;;
5042;SDS011;2540;50.928;6.856;2023-02-23T04:57:44;102.50;;;45.90;;
5042;SDS011;2540;50.928;6.856;2023-02-23T05:00:09;109.13;;;45.87;;
5042;SDS011;2540;50.928;6.856;2023-02-23T05:02:35;98.70;;;44.70;;
5042;SDS011;2540;50.928;6.856;2023-02-23T05:05:00;97.37;;;44.07;;
5042;SDS011;2540;50.928;6.856;2023-02-23T05:07:25;107.23;;;46.57;;
5042;SDS011;2540;50.928;6.856;2023-02-23T05:09:50;101.93;;;44.23;;
5042;SDS011;2540;50.928;6.856;2023-02-23T05:12:16;109.90;;;45.93;;
5042;SDS011;2540;50.928;6.856;2023-02-23T05:14:41;109.47;;;44.63;;
5042;SDS011;2540;50.928;6.856;2023-02-23T05:17:06;108.47;;;45.17;;
5042;SDS011;2540;50.928;6.856;2023-02-23T05:19:32;113.70;;;46.93;;
5042;SDS011;2540;50.928;6.856;2023-02-23T05:21:57;115.80;;;48.40;;
5042;SDS011;2540;50.928;6.856;2023-02-23T05:24:22;117.10;;;46.20;;
5042;SDS011;2540;50.928;6.856;2023-02-23T05:26:47;135.37;;;50.60;;
5042;SDS011;2540;50.928;6.856;2023-02-23T05:29:13;126.67;;;48.23;;
5042;SDS011;2540;50.928;6.856;2023-02-23T05:31:39;117.23;;;46.47;;
5042;SDS011;2540;50.928;6.856;2023-02-23T05:34:04;125.07;;;50.10;;
5042;SDS011;2540;50.928;6.856;2023-02-23T05:36:29;109.30;;;46.80;;
5042;SDS011;2540;50.928;6.856;2023-02-23T05:38:54;121.47;;;46.83;;
5042;SDS011;2540;50.928;6.856;2023-02-23T05:41:20;117.87;;;47.50;;
5042;SDS011;2540;50.928;6.856;2023-02-23T05:43:46;118.60;;;46.00;;
5042;SDS011;2540;50.928;6.856;2023-02-23T05:46:15;98.53;;;44.77;;
5042;SDS011;2540;50.928;6.856;2023-02-23T05:48:41;118.57;;;47.77;;
5042;SDS011;2540;50.928;6.856;2023-02-23T05:51:08;106.03;;;46.33;;
5042;SDS011;2540;50.928;6.856;2023-02-23T05:53:33;119.50;;;47.50;;
5042;SDS011;2540;50.928;6.856;2023-02-23T05:55:59;117.40;;;47.50;;
5042;SDS011;2540;50.928;6.856;2023-02-23T05:58:25;110.17;;;46.67;;
5042;SDS011;2540;50.928;6.856;2023-02-23T06:00:50;109.03;;;46.10;;
5042;SDS011;2540;50.928;6.856;2023-02-23T06:03:16;116.77;;;43.60;;
5042;SDS011;2540;50.928;6.856;2023-02-23T06:05:42;98.47;;;42.67;;
5042;SDS011;2540;50.928;6.856;2023-02-23T06:08:12;116.03;;;46.17;;
5042;SDS011;2540;50.928;6.856;2023-02-23T06:10:38;102.93;;;45.70;;
5042;SDS011;2540;50.928;6.856;2023-02-23T06:13:03;96.53;;;40.40;;
5042;SDS011;2540;50.928;6.856;2023-02-23T06:15:28;101.00;;;42.47;;
5042;SDS011;2540;50.928;6.856;2023-02-23T06:17:53;99.90;;;41.97;;
5042;SDS011;2540;50.928;6.856;2023-02-23T06:20:19;105.80;;;41.93;;
5042;SDS011;2540;50.928;6.856;2023-02-23T06:22:44;101.93;;;43.80;;
5042;SDS011;2540;50.928;6.856;2023-02-23T06:25:10;93.57;;;40.47;;
5042;SDS011;2540;50.928;6.856;2023-02-23T06:27:37;90.83;;;40.57;;
5042;SDS011;2540;50.928;6.856;2023-02-23T06:30:02;101.47;;;41.87;;
5042;SDS011;2540;50.928;6.856;2023-02-23T06:32:27;110.03;;;44.07;;
5042;SDS011;2540;50.928;6.856;2023-02-23T06:34:52;101.33;;;41.80;;
5042;SDS011;2540;50.928;6.856;2023-02-23T06:37:18;106.33;;;44.77;;
5042;SDS011;2540;50.928;6.856;2023-02-23T06:39:43;95.03;;;39.93;;
5042;SDS011;2540;50.928;6.856;2023-02-23T06:42:08;99.20;;;40.13;;
5042;SDS011;2540;50.928;6.856;2023-02-23T06:44:33;97.30;;;41.70;;
5042;SDS011;2540;50.928;6.856;2023-02-23T06:46:59;92.90;;;40.97;;
5042;SDS011;2540;50.928;6.856;2023-02-23T06:49:24;97.33;;;42.03;;
5042;SDS011;2540;50.928;6.856;2023-02-23T06:51:50;95.37;;;41.20;;
5042;SDS011;2540;50.928;6.856;2023-02-23T06:54:15;94.30;;;41.80;;
5042;SDS011;2540;50.928;6.856;2023-02-23T06:56:40;98.30;;;42.13;;
5042;SDS011;2540;50.928;6.856;2023-02-23T06:59:05;107.23;;;43.67;;
5042;SDS011;2540;50.928;6.856;2023-02-23T07:01:31;102.43;;;39.37;;
5042;SDS011;2540;50.928;6.856;2023-02-23T07:03:56;101.63;;;44.17;;
5042;SDS011;2540;50.928;6.856;2023-02-23T07:06:21;109.83;;;44.60;;
5042;SDS011;2540;50.928;6.856;2023-02-23T07:08:46;97.93;;;42.63;;
5042;SDS011;2540;50.928;6.856;2023-02-23T07:11:12;114.60;;;44.80;;
5042;SDS011;2540;50.928;6.856;2023-02-23T07:13:39;110.27;;;42.80;;
5042;SDS011;2540;50.928;6.856;2023-02-23T07:18:33;99.40;;;43.30;;
5042;SDS011;2540;50.928;6.856;2023-02-23T07:20:58;108.93;;;44.80;;
5042;SDS011;2540;50.928;6.856;2023-02-23T07:23:23;110.37;;;43.37;;
5042;SDS011;2540;50.928;6.856;2023-02-23T07:25:49;98.60;;;42.37;;
5042;SDS011;2540;50.928;6.856;2023-02-23T07:28:15;104.57;;;41.50;;
5042;SDS011;2540;50.928;6.856;2023-02-23T07:30:40;99.07;;;42.70;;
5042;SDS011;2540;50.928;6.856;2023-02-23T07:33:05;99.70;;;40.33;;
5042;SDS011;2540;50.928;6.856;2023-02-23T07:35:30;93.20;;;40.97;;
5042;SDS011;2540;50.928;6.856;2023-02-23T07:37:55;90.70;;;39.70;;
5042;SDS011;2540;50.928;6.856;2023-02-23T07:40:21;100.53;;;43.07;;
5042;SDS011;2540;50.928;6.856;2023-02-23T07:42:46;102.27;;;45.10;;
5042;SDS011;2540;50.928;6.856;2023-02-23T07:45:11;96.47;;;40.10;;
5042;SDS011;2540;50.928;6.856;2023-02-23T07:47:36;115.87;;;43.20;;
5042;SDS011;2540;50.928;6.856;2023-02-23T07:50:03;104.23;;;42.17;;
5042;SDS011;2540;50.928;6.856;2023-02-23T07:52:33;100.80;;;41.47;;
5042;SDS011;2540;50.928;6.856;2023-02-23T07:54:59;99.00;;;40.10;;
5042;SDS011;2540;50.928;6.856;2023-02-23T07:57:24;107.13;;;41.47;;
5042;SDS011;2540;50.928;6.856;2023-02-23T07:59:49;84.33;;;37.30;;
5042;SDS011;2540;50.928;6.856;2023-02-23T08:02:14;90.87;;;38.70;;
5042;SDS011;2540;50.928;6.856;2023-02-23T08:04:40;94.83;;;37.77;;
5042;SDS011;2540;50.928;6.856;2023-02-23T08:07:07;97.27;;;39.47;;
5042;SDS011;2540;50.928;6.856;2023-02-23T08:09:32;90.33;;;38.47;;
5042;SDS011;2540;50.928;6.856;2023-02-23T08:11:59;85.30;;;37.10;;
5042;SDS011;2540;50.928;6.856;2023-02-23T08:14:24;88.47;;;37.93;;
5042;SDS011;2540;50.928;6.856;2023-02-23T08:16:49;94.13;;;39.70;;
5042;SDS011;2540;50.928;6.856;2023-02-23T08:19:14;91.50;;;37.10;;
5042;SDS011;2540;50.928;6.856;2023-02-23T08:21:40;91.03;;;40.23;;
5042;SDS011;2540;50.928;6.856;2023-02-23T08:24:07;85.67;;;34.57;;
5042;SDS011;2540;50.928;6.856;2023-02-23T08:26:34;89.80;;;37.07;;
5042;SDS011;2540;50.928;6.856;2023-02-23T08:28:59;104.10;;;38.50;;
5042;SDS011;2540;50.928;6.856;2023-02-23T08:31:24;85.20;;;34.93;;
5042;SDS011;2540;50.928;6.856;2023-02-23T08:33:51;92.73;;;36.53;;
5042;SDS011;2540;50.928;6.856;2023-02-23T08:36:16;92.83;;;37.20;;
5042;SDS011;2540;50.928;6.856;2023-02-23T08:38:42;72.40;;;34.27;;
5042;SDS011;2540;50.928;6.856;2023-02-23T08:41:07;75.20;;;34.20;;
5042;SDS011;2540;50.928;6.856;2023-02-23T08:43:32;88.80;;;36.63;;
5042;SDS011;2540;50.928;6.856;2023-02-23T08:45:57;86.10;;;35.87;;
5042;SDS011;2540;50.928;6.856;2023-02-23T08:48:23;80.37;;;32.63;;
5042;SDS011;2540;50.928;6.856;2023-02-23T08:50:48;79.00;;;32.87;;
5042;SDS011;2540;50.928;6.856;2023-02-23T08:53:14;77.97;;;33.83;;
5042;SDS011;2540;50.928;6.856;2023-02-23T08:55:39;73.97;;;31.83;;
5042;SDS011;2540;50.928;6.856;2023-02-23T08:58:06;72.67;;;31.03;;
5042;SDS011;2540;50.928;6.856;2023-02-23T09:00:33;78.17;;;34.10;;
5042;SDS011;2540;50.928;6.856;2023-02-23T09:02:58;80.17;;;32.47;;
5042;SDS011;2540;50.928;6.856;2023-02-23T09:05:23;74.73;;;31.80;;
5042;SDS011;2540;50.928;6.856;2023-02-23T09:07:49;84.57;;;34.10;;
5042;SDS011;2540;50.928;6.856;2023-02-23T09:10:16;79.40;;;32.60;;
5042;SDS011;2540;50.928;6.856;2023-02-23T09:12:43;81.93;;;33.43;;
5042;SDS011;2540;50.928;6.856;2023-02-23T09:15:09;76.73;;;34.00;;
5042;SDS011;2540;50.928;6.856;2023-02-23T09:17:34;93.60;;;35.00;;
5042;SDS011;2540;50.928;6.856;2023-02-23T09:19:59;90.40;;;36.53;;
5042;SDS011;2540;50.928;6.856;2023-02-23T09:22:26;91.13;;;36.67;;
5042;SDS011;2540;50.928;6.856;2023-02-23T09:24:51;91.77;;;38.97;;
5042;SDS011;2540;50.928;6.856;2023-02-23T09:27:16;93.53;;;38.53;;
5042;SDS011;2540;50.928;6.856;2023-02-23T09:29:41;80.17;;;36.20;;
5042;SDS011;2540;50.928;6.856;2023-02-23T09:32:08;81.70;;;35.60;;
5042;SDS011;2540;50.928;6.856;2023-02-23T09:34:33;87.57;;;36.47;;
5042;SDS011;2540;50.928;6.856;2023-02-23T09:37:00;85.07;;;34.27;;
5042;SDS011;2540;50.928;6.856;2023-02-23T09:39:25;84.47;;;35.00;;
5042;SDS011;2540;50.928;6.856;2023-02-23T09:49:36;80.30;;;32.87;;
5042;SDS011;2540;50.928;6.856;2023-02-23T09:52:03;83.97;;;36.63;;
5042;SDS011;2540;50.928;6.856;2023-02-23T09:54:32;84.33;;;33.70;;
5042;SDS011;2540;50.928;6.856;2023-02-23T09:56:59;71.30;;;31.60;;
5042;SDS011;2540;50.928;6.856;2023-02-23T09:59:27;75.33;;;32.83;;
5042;SDS011;2540;50.928;6.856;2023-02-23T10:04:50;70.50;;;32.77;;
5042;SDS011;2540;50.928;6.856;2023-02-23T10:12:28;67.10;;;32.03;;
5042;SDS011;2540;50.928;6.856;2023-02-23T10:19:59;72.80;;;33.07;;
5042;SDS011;2540;50.928;6.856;2023-02-23T10:22:27;62.10;;;30.53;;
5042;SDS011;2540;50.928;6.856;2023-02-23T10:24:55;68.03;;;33.10;;
5042;SDS011;2540;50.928;6.856;2023-02-23T10:27:21;72.53;;;31.70;;
5042;SDS011;2540;50.928;6.856;2023-02-23T10:29:48;71.33;;;32.10;;
5042;SDS011;2540;50.928;6.856;2023-02-23T10:34:53;55.77;;;28.20;;
5042;SDS011;2540;50.928;6.856;2023-02-23T10:37:20;59.33;;;28.10;;
5042;SDS011;2540;50.928;6.856;2023-02-23T10:39:45;55.33;;;27.47;;
5042;SDS011;2540;50.928;6.856;2023-02-23T10:42:14;57.93;;;28.47;;
5042;SDS011;2540;50.928;6.856;2023-02-23T10:44:41;60.90;;;28.13;;
5042;SDS011;2540;50.928;6.856;2023-02-23T10:47:08;54.67;;;26.60;;
5042;SDS011;2540;50.928;6.856;2023-02-23T10:49:47;55.30;;;25.80;;
5042;SDS011;2540;50.928;6.856;2023-02-23T10:52:14;58.50;;;26.90;;
5042;SDS011;2540;50.928;6.856;2023-02-23T10:57:08;68.43;;;28.60;;
5042;SDS011;2540;50.928;6.856;2023-02-23T10:59:34;65.20;;;29.70;;
5042;SDS011;2540;50.928;6.856;2023-02-23T11:02:05;72.43;;;31.07;;
5042;SDS011;2540;50.928;6.856;2023-02-23T11:04:38;68.03;;;30.07;;
5042;SDS011;2540;50.928;6.856;2023-02-23T11:07:14;78.30;;;33.97;;
5042;SDS011;2540;50.928;6.856;2023-02-23T11:09:39;89.60;;;33.37;;
5042;SDS011;2540;50.928;6.856;2023-02-23T11:12:15;86.30;;;34.93;;
5042;SDS011;2540;50.928;6.856;2023-02-23T11:14:41;87.80;;;35.03;;
5042;SDS011;2540;50.928;6.856;2023-02-23T11:17:08;90.67;;;36.93;;
5042;SDS011;2540;50.928;6.856;2023-02-23T11:19:46;91.63;;;32.53;;
5042;SDS011;2540;50.928;6.856;2023-02-23T11:22:16;97.10;;;34.87;;
5042;SDS011;2540;50.928;6.856;2023-02-23T11:24:47;113.90;;;36.80;;
5042;SDS011;2540;50.928;6.856;2023-02-23T11:27:19;99.57;;;34.00;;
5042;SDS011;2540;50.928;6.856;2023-02-23T11:29:45;77.73;;;33.27;;
5042;SDS011;2540;50.928;6.856;2023-02-23T11:32:30;82.53;;;32.37;;
5042;SDS011;2540;50.928;6.856;2023-02-23T11:37:39;82.80;;;31.37;;
5042;SDS011;2540;50.928;6.856;2023-02-23T11:40:25;68.67;;;29.10;;
5042;SDS011;2540;50.928;6.856;2023-02-23T11:43:05;78.60;;;30.97;;
5042;SDS011;2540;50.928;6.856;2023-02-23T11:45:38;81.83;;;32.47;;
5042;SDS011;2540;50.928;6.856;2023-02-23T11:48:03;80.40;;;33.37;;
5042;SDS011;2540;50.928;6.856;2023-02-23T11:50:33;81.03;;;34.13;;
5042;SDS011;2540;50.928;6.856;2023-02-23T11:53:10;83.77;;;33.13;;
5042;SDS011;2540;50.928;6.856;2023-02-23T11:55:38;83.50;;;30.37;;
5042;SDS011;2540;50.928;6.856;2023-02-23T11:58:15;88.50;;;31.67;;
5042;SDS011;2540;50.928;6.856;2023-02-23T12:00:41;90.07;;;32.80;;
5042;SDS011;2540;50.928;6.856;2023-02-23T12:03:11;80.83;;;31.00;;
5042;SDS011;2540;50.928;6.856;2023-02-23T12:05:41;79.10;;;29.53;;
5042;SDS011;2540;50.928;6.856;2023-02-23T12:08:15;94.23;;;30.67;;
5042;SDS011;2540;50.928;6.856;2023-02-23T12:10:44;84.53;;;29.90;;
5042;SDS011;2540;50.928;6.856;2023-02-23T12:15:39;90.27;;;28.20;;
5042;SDS011;2540;50.928;6.856;2023-02-23T12:19:11;87.20;;;28.90;;
5042;SDS011;2540;50.928;6.856;2023-02-23T12:23:38;78.23;;;26.70;;
5042;SDS011;2540;50.928;6.856;2023-02-23T12:26:10;84.53;;;30.60;;
5042;SDS011;2540;50.928;6.856;2023-02-23T12:28:38;90.63;;;30.20;;
5042;SDS011;2540;50.928;6.856;2023-02-23T12:33:37;86.00;;;28.40;;
5042;SDS011;2540;50.928;6.856;2023-02-23T12:41:53;84.80;;;28.17;;
5042;SDS011;2540;50.928;6.856;2023-02-23T12:44:01;78.87;;;28.97;;
5042;SDS011;2540;50.928;6.856;2023-02-23T12:46:28;80.27;;;26.60;;
5042;SDS011;2540;50.928;6.856;2023-02-23T12:53:54;88.97;;;29.40;;
5042;SDS011;2540;50.928;6.856;2023-02-23T13:01:20;89.53;;;29.60;;
5042;SDS011;2540;50.928;6.856;2023-02-23T13:16:12;80.73;;;29.30;;
5042;SDS011;2540;50.928;6.856;2023-02-23T13:21:12;78.13;;;27.93;;
5042;SDS011;2540;50.928;6.856;2023-02-23T13:23:52;86.77;;;28.40;;
5042;SDS011;2540;50.928;6.856;2023-02-23T13:26:21;75.80;;;27.63;;
5042;SDS011;2540;50.928;6.856;2023-02-23T13:28:54;77.80;;;26.67;;
5042;SDS011;2540;50.928;6.856;2023-02-23T13:31:25;79.23;;;27.43;;
5042;SDS011;2540;50.928;6.856;2023-02-23T13:33:52;73.57;;;27.60;;
5042;SDS011;2540;50.928;6.856;2023-02-23T13:36:18;74.03;;;26.00;;
5042;SDS011;2540;50.928;6.856;2023-02-23T13:39:03;74.50;;;24.97;;
5042;SDS011;2540;50.928;6.856;2023-02-23T13:41:32;69.90;;;25.30;;
5042;SDS011;2540;50.928;6.856;2023-02-23T13:46:42;73.40;;;22.97;;
5042;SDS011;2540;50.928;6.856;2023-02-23T13:49:15;73.43;;;23.80;;
5042;SDS011;2540;50.928;6.856;2023-02-23T13:51:46;82.73;;;26.37;;
5042;SDS011;2540;50.928;6.856;2023-02-23T13:59:14;55.57;;;20.57;;
5042;SDS011;2540;50.928;6.856;2023-02-23T14:01:42;55.20;;;19.57;;
5042;SDS011;2540;50.928;6.856;2023-02-23T14:04:12;49.57;;;18.60;;
5042;SDS011;2540;50.928;6.856;2023-02-23T14:06:39;54.77;;;21.27;;
5042;SDS011;2540;50.928;6.856;2023-02-23T14:11:35;47.10;;;17.33;;
5042;SDS011;2540;50.928;6.856;2023-02-23T14:14:02;42.77;;;17.57;;
5042;SDS011;2540;50.928;6.856;2023-02-23T14:16:28;54.17;;;20.20;;
5042;SDS011;2540;50.928;6.856;2023-02-23T14:21:29;42.73;;;16.40;;
5042;SDS011;2540;50.928;6.856;2023-02-23T14:37:24;38.03;;;15.80;;
5042;SDS011;2540;50.928;6.856;2023-02-23T14:39:52;36.63;;;13.93;;
5042;SDS011;2540;50.928;6.856;2023-02-23T14:42:22;43.80;;;16.40;;
5042;SDS011;2540;50.928;6.856;2023-02-23T14:44:48;38.83;;;16.33;;
5042;SDS011;2540;50.928;6.856;2023-02-23T14:47:17;41.40;;;16.23;;
5042;SDS011;2540;50.928;6.856;2023-02-23T14:49:44;41.77;;;14.30;;
5042;SDS011;2540;50.928;6.856;2023-02-23T14:52:21;40.83;;;15.83;;
5042;SDS011;2540;50.928;6.856;2023-02-23T14:54:48;34.80;;;14.00;;
5042;SDS011;2540;50.928;6.856;2023-02-23T14:59:42;39.23;;;16.87;;
5042;SDS011;2540;50.928;6.856;2023-02-23T15:02:18;38.10;;;15.57;;
5042;SDS011;2540;50.928;6.856;2023-02-23T15:04:44;31.67;;;14.63;;
5042;SDS011;2540;50.928;6.856;2023-02-23T15:07:14;33.60;;;14.80;;
5042;SDS011;2540;50.928;6.856;2023-02-23T15:09:42;44.93;;;16.43;;
5042;SDS011;2540;50.928;6.856;2023-02-23T15:12:12;35.07;;;14.00;;
5042;SDS011;2540;50.928;6.856;2023-02-23T15:14:38;37.53;;;14.57;;
5042;SDS011;2540;50.928;6.856;2023-02-23T15:17:04;38.43;;;16.93;;
5042;SDS011;2540;50.928;6.856;2023-02-23T15:19:30;37.10;;;15.40;;
5042;SDS011;2540;50.928;6.856;2023-02-23T15:21:57;36.93;;;15.57;;
5042;SDS011;2540;50.928;6.856;2023-02-23T15:24:39;37.57;;;15.20;;
5042;SDS011;2540;50.928;6.856;2023-02-23T15:27:05;40.27;;;16.97;;
5042;SDS011;2540;50.928;6.856;2023-02-23T15:29:31;45.17;;;16.33;;
5042;SDS011;2540;50.928;6.856;2023-02-23T15:32:08;51.90;;;19.00;;
5042;SDS011;2540;50.928;6.856;2023-02-23T15:34:34;43.97;;;17.33;;
5042;SDS011;2540;50.928;6.856;2023-02-23T15:37:04;44.50;;;17.40;;
5042;SDS011;2540;50.928;6.856;2023-02-23T15:39:32;45.47;;;17.50;;
5042;SDS011;2540;50.928;6.856;2023-02-23T15:41:59;47.60;;;17.73;;
5042;SDS011;2540;50.928;6.856;2023-02-23T15:44:25;46.97;;;18.17;;
5042;SDS011;2540;50.928;6.856;2023-02-23T15:46:56;50.70;;;19.80;;
5042;SDS011;2540;50.928;6.856;2023-02-23T15:49:24;56.87;;;20.80;;
5042;SDS011;2540;50.928;6.856;2023-02-23T15:51:51;59.00;;;20.17;;
5042;SDS011;2540;50.928;6.856;2023-02-23T15:56:42;50.37;;;19.53;;
5042;SDS011;2540;50.928;6.856;2023-02-23T15:59:12;44.43;;;17.73;;
5042;SDS011;2540;50.928;6.856;2023-02-23T16:01:41;46.20;;;19.37;;
5042;SDS011;2540;50.928;6.856;2023-02-23T16:06:48;50.43;;;19.43;;
5042;SDS011;2540;50.928;6.856;2023-02-23T16:12:07;52.27;;;19.10;;
5042;SDS011;2540;50.928;6.856;2023-02-23T16:14:54;55.47;;;19.10;;
5042;SDS011;2540;50.928;6.856;2023-02-23T16:22:35;44.80;;;17.97;;
5042;SDS011;2540;50.928;6.856;2023-02-23T16:25:03;46.47;;;18.60;;
5042;SDS011;2540;50.928;6.856;2023-02-23T16:27:31;57.43;;;20.63;;
5042;SDS011;2540;50.928;6.856;2023-02-23T16:29:58;47.67;;;17.47;;
5042;SDS011;2540;50.928;6.856;2023-02-23T16:32:24;46.27;;;18.53;;
5042;SDS011;2540;50.928;6.856;2023-02-23T16:34:58;46.93;;;18.03;;
5042;SDS011;2540;50.928;6.856;2023-02-23T16:37:24;48.20;;;18.50;;
5042;SDS011;2540;50.928;6.856;2023-02-23T16:39:52;47.00;;;17.90;;
5042;SDS011;2540;50.928;6.856;2023-02-23T16:42:32;53.13;;;18.83;;
5042;SDS011;2540;50.928;6.856;2023-02-23T16:44:57;53.20;;;18.53;;
5042;SDS011;2540;50.928;6.856;2023-02-23T16:49:48;50.07;;;18.50;;
5042;SDS011;2540;50.928;6.856;2023-02-23T16:52:18;50.90;;;18.50;;
5042;SDS011;2540;50.928;6.856;2023-02-23T16:54:43;48.70;;;17.40;;
5042;SDS011;2540;50.928;6.856;2023-02-23T16:57:18;49.93;;;19.00;;
5042;SDS011;2540;50.928;6.856;2023-02-23T16:59:46;58.53;;;19.53;;
5042;SDS011;2540;50.928;6.856;2023-02-23T17:02:14;49.90;;;19.60;;
5042;SDS011;2540;50.928;6.856;2023-02-23T17:04:39;56.47;;;22.00;;
5042;SDS011;2540;50.928;6.856;2023-02-23T17:07:13;46.33;;;18.07;;
5042;SDS011;2540;50.928;6.856;2023-02-23T17:09:39;62.27;;;19.50;;
5042;SDS011;2540;50.928;6.856;2023-02-23T17:12:04;43.90;;;18.30;;
5042;SDS011;2540;50.928;6.856;2023-02-23T17:14:29;56.00;;;18.17;;
5042;SDS011;2540;50.928;6.856;2023-02-23T17:16:56;50.10;;;18.67;;
5042;SDS011;2540;50.928;6.856;2023-02-23T17:19:21;43.50;;;16.40;;
5042;SDS011;2540;50.928;6.856;2023-02-23T17:21:48;46.30;;;18.37;;
5042;SDS011;2540;50.928;6.856;2023-02-23T17:24:13;45.67;;;16.67;;
5042;SDS011;2540;50.928;6.856;2023-02-23T17:26:39;45.07;;;15.83;;
5042;SDS011;2540;50.928;6.856;2023-02-23T17:29:06;44.10;;;16.37;;
5042;SDS011;2540;50.928;6.856;2023-02-23T17:31:31;49.33;;;16.83;;
5042;SDS011;2540;50.928;6.856;2023-02-23T17:33:56;43.07;;;16.80;;
5042;SDS011;2540;50.928;6.856;2023-02-23T17:36:22;44.00;;;16.23;;
5042;SDS011;2540;50.928;6.856;2023-02-23T17:38:47;43.23;;;16.30;;
5042;SDS011;2540;50.928;6.856;2023-02-23T17:41:16;44.00;;;15.00;;